createdAt,value
2022-10-01T00:01:19.956Z,99.90
2022-10-01T00:03:47.895Z,99.90
2022-10-01T00:06:18.050Z,99.90
2022-10-01T00:08:49.229Z,99.90
2022-10-01T00:11:22.552Z,99.90
2022-10-01T00:13:50.182Z,99.90
2022-10-01T00:16:26.201Z,99.90
2022-10-01T00:18:53.947Z,99.90
2022-10-01T00:21:26.995Z,99.90
2022-10-01T00:23:58.041Z,99.90
2022-10-01T00:26:29.620Z,99.90
2022-10-01T00:29:06.007Z,99.90
2022-10-01T00:31:33.402Z,99.90
2022-10-01T00:34:07.371Z,99.90
2022-10-01T00:36:34.853Z,99.90
2022-10-01T00:39:02.151Z,99.90
2022-10-01T00:41:32.239Z,99.90
2022-10-01T00:44:03.707Z,99.90
2022-10-01T00:46:43.264Z,99.90
2022-10-01T00:49:19.013Z,99.90
2022-10-01T00:51:50.739Z,99.90
2022-10-01T00:54:20.356Z,99.90
2022-10-01T00:56:53.296Z,99.90
2022-10-01T00:59:20.916Z,99.90
2022-10-01T01:01:48.782Z,99.90
2022-10-01T01:04:18.348Z,99.90
2022-10-01T01:06:55.165Z,99.90
2022-10-01T01:09:27.886Z,99.90
2022-10-01T01:12:24.660Z,99.90
2022-10-01T01:15:00.642Z,99.90
2022-10-01T01:17:51.448Z,99.90
2022-10-01T01:20:49.772Z,99.90
2022-10-01T01:23:16.407Z,99.90
2022-10-01T01:25:49.151Z,99.90
2022-10-01T01:28:31.688Z,99.90
2022-10-01T01:31:05.667Z,99.90
2022-10-01T01:33:35.174Z,99.90
2022-10-01T01:36:06.257Z,99.90
2022-10-01T01:38:46.295Z,99.90
2022-10-01T01:41:15.553Z,99.90
2022-10-01T01:43:45.785Z,99.90
2022-10-01T01:46:16.515Z,99.90
2022-10-01T01:48:47.457Z,99.90
2022-10-01T01:51:24.949Z,99.90
2022-10-01T01:53:52.106Z,99.90
2022-10-01T01:56:21.181Z,99.90
2022-10-01T01:58:51.495Z,99.90
2022-10-01T02:01:39.394Z,99.90
2022-10-01T02:04:26.558Z,99.90
2022-10-01T02:07:03.696Z,99.90
2022-10-01T02:09:56.669Z,99.90
2022-10-01T02:12:48.113Z,99.90
2022-10-01T02:15:59.748Z,99.90
2022-10-01T02:18:34.608Z,99.90
2022-10-01T02:21:11.016Z,99.90
2022-10-01T02:23:48.118Z,99.90
2022-10-01T02:26:20.871Z,99.90
2022-10-01T02:28:51.326Z,99.90
2022-10-01T02:31:19.803Z,99.90
2022-10-01T02:33:48.243Z,99.90
2022-10-01T02:36:17.976Z,99.90
2022-10-01T02:38:46.211Z,99.90
2022-10-01T02:41:19.004Z,99.90
2022-10-01T02:43:57.602Z,99.90
2022-10-01T02:46:58.044Z,99.90
2022-10-01T02:49:30.414Z,99.90
2022-10-01T02:52:14.694Z,99.90
2022-10-01T02:55:19.765Z,99.90
2022-10-01T02:57:46.914Z,99.90
2022-10-01T03:00:17.366Z,99.90
2022-10-01T03:02:44.135Z,99.90
2022-10-01T03:05:11.126Z,99.90
2022-10-01T03:07:40.076Z,99.90
2022-10-01T03:10:09.117Z,99.90
2022-10-01T03:12:36.165Z,99.90
2022-10-01T03:15:04.378Z,99.90
2022-10-01T03:17:31.061Z,99.90
2022-10-01T03:19:57.862Z,99.90
2022-10-01T03:22:24.614Z,99.90
2022-10-01T03:24:55.925Z,99.90
2022-10-01T03:27:24.730Z,99.90
2022-10-01T03:29:54.559Z,99.90
2022-10-01T03:32:21.328Z,99.90
2022-10-01T03:34:48.238Z,99.90
2022-10-01T03:37:15.152Z,99.90
2022-10-01T03:39:42.053Z,99.90
2022-10-01T03:42:11.281Z,99.90
2022-10-01T03:44:38.028Z,99.90
2022-10-01T03:47:04.941Z,99.90
2022-10-01T03:49:33.818Z,99.90
2022-10-01T03:52:01.049Z,99.90
2022-10-01T03:54:27.785Z,99.90
2022-10-01T03:56:56.920Z,99.90
2022-10-01T03:59:23.952Z,99.90
2022-10-01T04:01:50.756Z,99.90
2022-10-01T04:04:17.697Z,99.90
2022-10-01T04:06:47.488Z,99.90
2022-10-01T04:09:14.155Z,99.90
2022-10-01T04:11:40.886Z,99.90
2022-10-01T04:14:09.830Z,99.90
2022-10-01T04:16:36.806Z,99.90
2022-10-01T04:19:04.371Z,99.90
2022-10-01T04:21:31.286Z,99.90
2022-10-01T04:24:00.289Z,99.90
2022-10-01T04:26:29.280Z,99.90
2022-10-01T04:28:56.253Z,99.90
2022-10-01T04:31:25.954Z,99.90
2022-10-01T04:33:54.701Z,99.90
2022-10-01T04:36:23.997Z,99.90
2022-10-01T04:38:59.386Z,99.90
2022-10-01T04:41:30.436Z,99.90
2022-10-01T04:43:59.140Z,99.90
2022-10-01T04:46:26.236Z,99.90
2022-10-01T04:48:52.974Z,99.90
2022-10-01T04:51:22.031Z,99.90
2022-10-01T04:53:50.947Z,99.90
2022-10-01T04:56:19.968Z,99.90
2022-10-01T04:58:49.516Z,99.90
2022-10-01T05:01:16.336Z,99.90
2022-10-01T05:03:43.129Z,99.90
2022-10-01T05:06:10.051Z,99.90
2022-10-01T05:08:39.182Z,99.90
2022-10-01T05:11:08.212Z,99.90
2022-10-01T05:13:37.063Z,99.90
2022-10-01T05:16:06.131Z,99.90
2022-10-01T05:18:32.908Z,99.90
2022-10-01T05:20:59.681Z,99.90
2022-10-01T05:23:26.758Z,99.90
2022-10-01T05:25:53.609Z,99.90
2022-10-01T05:28:22.590Z,99.90
2022-10-01T05:30:51.748Z,99.90
2022-10-01T05:33:18.496Z,99.90
2022-10-01T05:35:45.312Z,99.90
2022-10-01T05:38:12.015Z,99.90
2022-10-01T05:40:38.690Z,99.90
2022-10-01T05:43:07.847Z,99.90
2022-10-01T05:45:35.808Z,99.90
2022-10-01T05:48:05.530Z,99.90
2022-10-01T05:50:38.666Z,99.90
2022-10-01T05:53:06.438Z,99.90
2022-10-01T05:55:34.807Z,99.90
2022-10-01T05:58:08.989Z,99.90
2022-10-01T06:00:36.342Z,99.90
2022-10-01T06:03:06.659Z,99.90
2022-10-01T06:05:35.355Z,99.90
2022-10-01T06:08:07.745Z,99.90
2022-10-01T06:10:36.791Z,99.90
2022-10-01T06:13:05.635Z,99.90
2022-10-01T06:15:34.966Z,99.90
2022-10-01T06:18:03.768Z,99.90
2022-10-01T06:20:32.958Z,99.90
2022-10-01T06:23:00.267Z,99.90
2022-10-01T06:25:29.685Z,99.90
2022-10-01T06:27:59.056Z,99.90
2022-10-01T06:30:29.471Z,99.90
2022-10-01T06:33:03.657Z,99.90
2022-10-01T06:35:31.584Z,99.90
2022-10-01T06:37:58.986Z,99.90
2022-10-01T06:40:30.462Z,99.90
2022-10-01T06:43:02.853Z,99.90
2022-10-01T06:45:31.011Z,99.90
2022-10-01T06:48:02.627Z,99.90
2022-10-01T06:50:29.908Z,99.90
2022-10-01T06:52:57.660Z,99.90
2022-10-01T06:55:30.119Z,99.90
2022-10-01T06:58:12.927Z,99.90
2022-10-01T07:00:39.884Z,99.90
2022-10-01T07:03:14.547Z,99.90
2022-10-01T07:05:43.881Z,99.90
2022-10-01T07:08:13.668Z,99.90
2022-10-01T07:10:44.508Z,99.90
2022-10-01T07:13:20.221Z,99.90
2022-10-01T07:15:47.077Z,99.90
2022-10-01T07:18:14.378Z,99.90
2022-10-01T07:20:46.270Z,99.90
2022-10-01T07:23:14.545Z,99.90
2022-10-01T07:25:42.370Z,99.90
2022-10-01T07:28:16.671Z,99.90
2022-10-01T07:30:57.663Z,99.90
2022-10-01T07:33:24.325Z,99.90
2022-10-01T07:35:51.251Z,99.90
2022-10-01T07:38:18.039Z,99.90
2022-10-01T07:40:47.251Z,99.90
2022-10-01T07:43:14.816Z,99.90
2022-10-01T07:45:43.951Z,99.90
2022-10-01T07:48:10.689Z,99.90
2022-10-01T07:50:37.547Z,99.90
2022-10-01T07:53:05.036Z,99.90
2022-10-01T07:55:32.814Z,99.90
2022-10-01T07:58:02.797Z,99.90
2022-10-01T08:00:31.603Z,99.90
2022-10-01T08:03:00.597Z,99.90
2022-10-01T08:05:38.647Z,99.90
2022-10-01T08:08:07.135Z,99.90
2022-10-01T08:10:35.956Z,99.90
2022-10-01T08:13:14.856Z,99.80
2022-10-01T08:15:47.537Z,99.50
2022-10-01T08:18:20.003Z,99.50
2022-10-01T08:20:47.983Z,99.40
2022-10-01T08:23:17.921Z,99.30
2022-10-01T08:25:45.165Z,99.00
2022-10-01T08:28:12.771Z,98.80
2022-10-01T08:30:43.957Z,98.70
2022-10-01T08:33:12.351Z,98.60
2022-10-01T08:35:41.127Z,98.40
2022-10-01T08:38:08.323Z,98.50
2022-10-01T08:40:41.495Z,98.50
2022-10-01T08:43:30.217Z,98.50
2022-10-01T08:46:03.172Z,98.60
2022-10-01T08:48:56.874Z,98.40
2022-10-01T08:51:44.615Z,98.20
2022-10-01T08:54:33.766Z,97.80
2022-10-01T08:57:02.992Z,97.50
2022-10-01T08:59:40.757Z,97.50
2022-10-01T09:02:29.650Z,97.60
2022-10-01T09:05:02.866Z,97.10
2022-10-01T09:07:48.223Z,97.10
2022-10-01T09:10:42.424Z,97.10
2022-10-01T09:13:50.235Z,96.90
2022-10-01T09:16:42.884Z,96.60
2022-10-01T09:19:34.619Z,96.50
2022-10-01T09:22:10.841Z,96.20
2022-10-01T09:24:43.997Z,96.60
2022-10-01T09:27:25.484Z,96.50
2022-10-01T09:29:57.626Z,96.40
2022-10-01T09:32:31.099Z,96.40
2022-10-01T09:35:04.460Z,96.30
2022-10-01T09:37:47.979Z,96.10
2022-10-01T09:40:27.380Z,95.70
2022-10-01T09:42:54.209Z,95.50
2022-10-01T09:45:22.605Z,95.70
2022-10-01T09:47:54.059Z,95.50
2022-10-01T09:50:30.416Z,95.30
2022-10-01T09:53:00.209Z,95.40
2022-10-01T09:55:40.485Z,95.50
2022-10-01T09:58:16.476Z,95.60
2022-10-01T10:00:43.853Z,95.80
2022-10-01T10:03:21.192Z,95.80
2022-10-01T10:05:49.459Z,95.30
2022-10-01T10:08:23.791Z,94.70
2022-10-01T10:11:00.722Z,94.40
2022-10-01T10:13:34.944Z,94.20
2022-10-01T10:16:20.380Z,94.10
2022-10-01T10:18:52.081Z,94.00
2022-10-01T10:21:24.716Z,94.30
2022-10-01T10:23:54.085Z,94.40
2022-10-01T10:26:33.565Z,94.30
2022-10-01T10:29:02.967Z,94.10
2022-10-01T10:31:40.773Z,93.90
2022-10-01T10:34:22.708Z,93.60
2022-10-01T10:36:58.808Z,93.80
2022-10-01T10:39:30.995Z,93.90
2022-10-01T10:41:59.829Z,93.40
2022-10-01T10:44:32.013Z,93.30
2022-10-01T10:47:05.329Z,93.30
2022-10-01T10:49:44.984Z,92.60
2022-10-01T10:52:29.042Z,92.10
2022-10-01T10:54:58.257Z,92.10
2022-10-01T10:57:36.634Z,92.10
2022-10-01T11:00:20.887Z,92.30
2022-10-01T11:02:58.013Z,92.60
2022-10-01T11:05:31.976Z,92.70
2022-10-01T11:08:03.491Z,93.00
2022-10-01T11:10:56.275Z,93.20
2022-10-01T11:13:47.406Z,93.20
2022-10-01T11:16:48.177Z,92.90
2022-10-01T11:19:32.949Z,92.70
2022-10-01T11:22:32.113Z,92.10
2022-10-01T11:25:04.229Z,91.70
2022-10-01T11:28:25.023Z,91.50
2022-10-01T11:31:22.433Z,91.30
2022-10-01T11:34:04.171Z,91.20
2022-10-01T11:36:40.655Z,91.50
2022-10-01T11:39:12.693Z,91.40
2022-10-01T11:41:57.060Z,91.40
2022-10-01T11:44:39.767Z,91.50
2022-10-01T11:47:15.323Z,91.80
2022-10-01T11:49:56.477Z,92.20
2022-10-01T11:52:42.496Z,92.10
2022-10-01T11:55:30.906Z,92.00
2022-10-01T11:58:26.299Z,91.70
2022-10-01T12:01:45.133Z,91.20
2022-10-01T12:04:22.573Z,91.20
2022-10-01T12:06:54.576Z,91.30
2022-10-01T12:09:32.483Z,91.30
2022-10-01T12:12:07.348Z,91.50
2022-10-01T12:14:48.998Z,91.20
2022-10-01T12:17:32.465Z,91.10
2022-10-01T12:20:02.025Z,91.20
2022-10-01T12:22:32.633Z,91.10
2022-10-01T12:24:59.589Z,90.90
2022-10-01T12:28:11.345Z,91.00
2022-10-01T12:30:49.669Z,91.00
2022-10-01T12:34:09.136Z,91.00
2022-10-01T12:36:47.018Z,90.70
2022-10-01T12:39:37.542Z,90.70
2022-10-01T12:42:25.638Z,90.70
2022-10-01T12:45:04.859Z,90.90
2022-10-01T12:47:45.456Z,90.80
2022-10-01T12:50:25.031Z,91.10
2022-10-01T12:53:32.592Z,91.10
2022-10-01T12:56:30.898Z,91.00
2022-10-01T12:59:12.325Z,90.90
2022-10-01T13:02:20.261Z,90.70
2022-10-01T13:05:05.029Z,90.30
2022-10-01T13:07:33.803Z,90.40
2022-10-01T13:10:21.678Z,90.30
2022-10-01T13:12:59.753Z,90.20
2022-10-01T13:15:34.648Z,90.60
2022-10-01T13:18:36.013Z,90.90
2022-10-01T13:21:50.114Z,91.20
2022-10-01T13:24:53.205Z,91.10
2022-10-01T13:27:35.552Z,91.20
2022-10-01T13:30:26.033Z,91.10
2022-10-01T13:33:00.913Z,91.30
2022-10-01T13:35:39.323Z,91.20
2022-10-01T13:38:30.559Z,90.90
2022-10-01T13:41:03.084Z,91.00
2022-10-01T13:43:31.453Z,91.00
2022-10-01T13:46:09.963Z,90.80
2022-10-01T13:48:45.319Z,90.80
2022-10-01T13:51:14.054Z,90.90
2022-10-01T13:54:01.619Z,90.90
2022-10-01T13:56:36.790Z,91.10
2022-10-01T13:59:45.006Z,91.30
2022-10-01T14:02:33.067Z,91.40
2022-10-01T14:05:28.206Z,91.10
2022-10-01T14:08:29.275Z,91.00
2022-10-01T14:11:19.835Z,91.20
2022-10-01T14:14:09.528Z,91.40
2022-10-01T14:16:47.544Z,91.70
2022-10-01T14:19:21.979Z,92.00
2022-10-01T14:22:16.679Z,92.20
2022-10-01T14:25:04.305Z,92.20
2022-10-01T14:27:56.628Z,92.40
2022-10-01T14:30:28.460Z,92.50
2022-10-01T14:33:26.191Z,92.50
2022-10-01T14:36:16.285Z,92.40
2022-10-01T14:38:43.032Z,92.20
2022-10-01T14:41:23.458Z,91.70
2022-10-01T14:43:50.333Z,91.30
2022-10-01T14:46:18.688Z,91.20
2022-10-01T14:48:56.012Z,91.10
2022-10-01T14:51:28.783Z,89.90
2022-10-01T14:53:57.970Z,88.90
2022-10-01T14:56:26.299Z,89.60
2022-10-01T14:59:02.780Z,90.00
2022-10-01T15:01:29.611Z,89.90
2022-10-01T15:03:59.007Z,89.60
2022-10-01T15:06:30.005Z,89.40
2022-10-01T15:09:11.457Z,89.50
2022-10-01T15:11:44.651Z,89.40
2022-10-01T15:14:20.994Z,88.90
2022-10-01T15:16:48.947Z,89.20
2022-10-01T15:19:19.472Z,89.50
2022-10-01T15:22:01.431Z,89.80
2022-10-01T15:24:40.000Z,90.10
2022-10-01T15:27:08.368Z,90.30
2022-10-01T15:29:36.480Z,90.40
2022-10-01T15:32:06.153Z,90.80
2022-10-01T15:34:37.167Z,91.10
2022-10-01T15:37:04.833Z,91.50
2022-10-01T15:39:40.236Z,91.60
2022-10-01T15:42:12.088Z,91.90
2022-10-01T15:44:40.813Z,92.10
2022-10-01T15:47:19.590Z,91.90
2022-10-01T15:50:12.237Z,91.50
2022-10-01T15:52:51.449Z,91.10
2022-10-01T15:55:29.016Z,91.10
2022-10-01T15:58:13.371Z,91.10
2022-10-01T16:01:01.615Z,91.00
2022-10-01T16:03:51.535Z,90.90
2022-10-01T16:06:24.086Z,91.10
2022-10-01T16:09:05.345Z,91.20
2022-10-01T16:11:49.746Z,91.30
2022-10-01T16:14:23.935Z,91.40
2022-10-01T16:16:50.870Z,91.50
2022-10-01T16:19:31.312Z,91.50
2022-10-01T16:22:21.736Z,91.60
2022-10-01T16:24:54.081Z,91.70
2022-10-01T16:27:49.982Z,91.60
2022-10-01T16:30:23.042Z,91.60
2022-10-01T16:32:49.947Z,91.70
2022-10-01T16:35:25.461Z,91.80
2022-10-01T16:37:55.126Z,92.00
2022-10-01T16:40:25.289Z,91.80
2022-10-01T16:42:52.959Z,91.90
2022-10-01T16:45:36.682Z,92.00
2022-10-01T16:48:13.051Z,92.00
2022-10-01T16:50:42.544Z,92.10
2022-10-01T16:53:16.469Z,92.20
2022-10-01T16:55:46.369Z,92.30
2022-10-01T16:58:17.270Z,92.40
2022-10-01T17:00:46.349Z,92.40
2022-10-01T17:03:17.840Z,92.50
2022-10-01T17:05:49.749Z,92.50
2022-10-01T17:08:17.146Z,92.60
2022-10-01T17:10:57.013Z,92.60
2022-10-01T17:13:30.228Z,92.70
2022-10-01T17:15:59.813Z,92.70
2022-10-01T17:18:27.004Z,92.70
2022-10-01T17:20:53.745Z,92.70
2022-10-01T17:23:22.338Z,92.70
2022-10-01T17:25:52.200Z,92.70
2022-10-01T17:28:24.400Z,92.80
2022-10-01T17:30:51.387Z,92.80
2022-10-01T17:33:22.553Z,92.80
2022-10-01T17:35:55.591Z,92.80
2022-10-01T17:38:23.351Z,92.70
2022-10-01T17:40:56.413Z,92.60
2022-10-01T17:43:28.169Z,92.60
2022-10-01T17:45:58.751Z,92.60
2022-10-01T17:48:27.394Z,92.60
2022-10-01T17:51:01.496Z,92.60
2022-10-01T17:53:38.176Z,92.70
2022-10-01T17:56:14.765Z,92.80
2022-10-01T17:58:47.474Z,92.90
2022-10-01T18:01:21.086Z,93.00
2022-10-01T18:03:52.015Z,93.20
2022-10-01T18:06:23.292Z,93.30
2022-10-01T18:08:57.355Z,93.40
2022-10-01T18:11:30.854Z,93.40
2022-10-01T18:13:58.568Z,93.50
2022-10-01T18:16:26.408Z,93.50
2022-10-01T18:21:48.623Z,93.70
2022-10-01T18:24:18.103Z,93.70
2022-10-01T18:26:45.759Z,93.80
2022-10-01T18:29:22.928Z,94.00
2022-10-01T18:32:02.616Z,94.10
2022-10-01T18:34:57.784Z,94.20
2022-10-01T18:37:48.438Z,94.40
2022-10-01T18:40:27.221Z,94.50
2022-10-01T18:43:22.998Z,94.60
2022-10-01T18:45:52.498Z,94.70
2022-10-01T18:48:31.127Z,94.70
2022-10-01T18:51:09.703Z,94.90
2022-10-01T18:54:15.147Z,94.90
2022-10-01T18:57:04.783Z,94.90
2022-10-01T18:59:59.574Z,95.00
2022-10-01T19:03:08.252Z,95.10
2022-10-01T19:05:58.553Z,95.20
2022-10-01T19:08:54.719Z,95.30
2022-10-01T19:11:46.098Z,95.30
2022-10-01T19:14:52.567Z,95.50
2022-10-01T19:17:25.226Z,95.70
2022-10-01T19:20:10.290Z,95.70
2022-10-01T19:23:00.889Z,96.00
2022-10-01T19:25:47.241Z,96.20
2022-10-01T19:28:35.527Z,96.30
2022-10-01T19:31:05.077Z,96.50
2022-10-01T19:33:36.495Z,96.50
2022-10-01T19:36:06.692Z,96.70
2022-10-01T19:38:40.690Z,97.10
2022-10-01T19:41:38.276Z,96.90
2022-10-01T19:44:19.570Z,97.00
2022-10-01T19:46:49.568Z,97.00
2022-10-01T19:49:27.566Z,97.10
2022-10-01T19:52:01.043Z,97.20
2022-10-01T19:54:31.612Z,97.30
2022-10-01T19:57:24.062Z,97.40
2022-10-01T20:00:03.793Z,97.50
2022-10-01T20:02:45.825Z,97.50
2022-10-01T20:05:28.368Z,97.60
2022-10-01T20:08:27.821Z,97.60
2022-10-01T20:10:57.339Z,97.70
2022-10-01T20:14:02.378Z,97.70
2022-10-01T20:16:45.281Z,97.80
2022-10-01T20:19:42.221Z,97.80
2022-10-01T20:22:31.081Z,97.90
2022-10-01T20:25:16.630Z,98.00
2022-10-01T20:28:04.058Z,98.10
2022-10-01T20:30:39.971Z,98.20
2022-10-01T20:33:13.058Z,98.20
2022-10-01T20:35:59.437Z,98.40
2022-10-01T20:38:52.481Z,98.40
2022-10-01T20:41:23.259Z,98.50
2022-10-01T20:43:59.067Z,98.60
2022-10-01T20:46:44.320Z,98.70
2022-10-01T20:49:19.648Z,98.70
2022-10-01T20:52:25.436Z,98.80
2022-10-01T20:54:56.330Z,98.90
2022-10-01T20:57:43.143Z,98.80
2022-10-01T21:00:20.421Z,98.90
2022-10-01T21:02:50.377Z,99.00
2022-10-01T21:05:29.517Z,99.00
2022-10-01T21:08:02.071Z,99.10
2022-10-01T21:10:42.528Z,99.20
2022-10-01T21:13:31.397Z,99.20
2022-10-01T21:16:24.164Z,99.30
2022-10-01T21:19:00.080Z,99.30
2022-10-01T21:21:28.980Z,99.30
2022-10-01T21:24:08.139Z,99.40
2022-10-01T21:27:16.984Z,99.40
2022-10-01T21:30:07.545Z,99.40
2022-10-01T21:33:01.288Z,99.40
2022-10-01T21:35:52.685Z,99.40
2022-10-01T21:38:30.258Z,99.40
2022-10-01T21:40:57.861Z,99.40
2022-10-01T21:43:50.769Z,99.40
2022-10-01T21:46:39.121Z,99.20
2022-10-01T21:49:10.828Z,99.10
2022-10-01T21:51:56.185Z,99.00
2022-10-01T21:54:44.627Z,98.90
2022-10-01T21:57:43.297Z,98.90
2022-10-01T22:00:36.543Z,98.90
2022-10-01T22:03:22.469Z,98.80
2022-10-01T22:06:03.123Z,98.90
2022-10-01T22:08:51.200Z,98.90
2022-10-01T22:11:22.065Z,99.00
2022-10-01T22:13:58.129Z,99.00
2022-10-01T22:16:30.804Z,98.90
2022-10-01T22:19:05.210Z,98.80
2022-10-01T22:21:40.952Z,98.80
2022-10-01T22:24:28.787Z,98.80
2022-10-01T22:27:05.418Z,98.80
2022-10-01T22:29:40.179Z,98.90
2022-10-01T22:32:10.765Z,99.00
2022-10-01T22:35:07.119Z,99.10
2022-10-01T22:37:47.403Z,99.20
2022-10-01T22:40:18.694Z,99.20
2022-10-01T22:43:07.884Z,99.30
2022-10-01T22:46:17.426Z,99.40
2022-10-01T22:48:56.748Z,99.50
2022-10-01T22:51:32.049Z,99.60
2022-10-01T22:54:36.061Z,99.70
2022-10-01T22:57:20.133Z,99.80
2022-10-01T23:00:05.196Z,99.90
2022-10-01T23:02:47.247Z,99.90
2022-10-01T23:05:44.039Z,99.90
2022-10-01T23:08:42.643Z,99.90
2022-10-01T23:11:20.774Z,99.90
2022-10-01T23:14:08.193Z,99.90
2022-10-01T23:16:54.300Z,99.90
2022-10-01T23:19:44.943Z,99.90
2022-10-01T23:22:43.515Z,99.90
2022-10-01T23:25:26.570Z,99.90
2022-10-01T23:28:24.229Z,99.90
2022-10-01T23:30:50.853Z,99.90
2022-10-01T23:33:54.303Z,99.90
2022-10-01T23:36:28.646Z,99.90
2022-10-01T23:39:32.989Z,99.90
2022-10-01T23:42:27.043Z,99.90
2022-10-01T23:45:21.978Z,99.90
2022-10-01T23:47:51.766Z,99.90
2022-10-01T23:50:32.355Z,99.90
2022-10-01T23:53:34.158Z,99.90
2022-10-01T23:56:32.639Z,99.90
2022-10-01T23:59:18.453Z,99.90
